createdAt,value
2019-05-29T00:00:54.461Z,0.00
2019-05-29T00:01:54.871Z,0.00
2019-05-29T00:02:55.306Z,0.00
2019-05-29T00:03:55.730Z,0.00
2019-05-29T00:04:56.163Z,0.00
2019-05-29T00:05:56.586Z,0.00
2019-05-29T00:06:57.020Z,0.00
2019-05-29T00:07:57.442Z,0.00
2019-05-29T00:08:57.881Z,0.00
2019-05-29T00:09:58.304Z,0.00
2019-05-29T00:10:58.736Z,0.00
2019-05-29T00:11:59.174Z,0.00
2019-05-29T00:12:59.587Z,0.00
2019-05-29T00:14:00.023Z,0.00
2019-05-29T00:15:00.453Z,0.00
2019-05-29T00:16:00.881Z,0.00
2019-05-29T00:17:01.309Z,0.00
2019-05-29T00:18:01.750Z,0.00
2019-05-29T00:19:02.172Z,0.00
2019-05-29T00:20:02.636Z,0.00
2019-05-29T00:21:03.050Z,0.00
2019-05-29T00:22:03.460Z,0.00
2019-05-29T00:23:03.889Z,0.00
2019-05-29T00:24:04.317Z,0.00
2019-05-29T00:25:04.754Z,0.00
2019-05-29T00:26:06.245Z,0.00
2019-05-29T00:27:05.600Z,0.00
2019-05-29T00:28:06.471Z,0.00
2019-05-29T00:29:07.473Z,0.00
2019-05-29T00:30:07.015Z,0.00
2019-05-29T00:31:07.745Z,0.00
2019-05-29T00:32:08.827Z,0.00
2019-05-29T00:33:08.181Z,0.00
2019-05-29T00:35:42.682Z,0.00
2019-05-29T00:36:43.108Z,0.00
2019-05-29T00:38:37.663Z,0.00
2019-05-29T00:39:38.085Z,0.00
2019-05-29T00:41:32.629Z,0.00
2019-05-29T00:42:33.071Z,0.00
2019-05-29T00:46:01.738Z,0.00
2019-05-29T00:47:02.155Z,0.00
2019-05-29T00:48:56.713Z,0.00
2019-05-29T00:49:57.128Z,0.00
2019-05-29T00:51:52.669Z,0.00
2019-05-29T00:52:53.101Z,0.00
2019-05-29T00:54:47.662Z,0.00
2019-05-29T00:55:48.088Z,0.00
2019-05-29T00:57:42.640Z,0.00
2019-05-29T00:58:43.073Z,0.00
2019-05-29T01:00:37.669Z,0.00
2019-05-29T01:01:38.099Z,0.00
2019-05-29T01:03:32.661Z,0.00
2019-05-29T01:04:33.078Z,0.00
2019-05-29T01:06:27.631Z,0.00
2019-05-29T01:07:28.071Z,0.00
2019-05-29T01:09:22.612Z,0.00
2019-05-29T01:10:23.031Z,0.00
2019-05-29T01:12:17.585Z,0.00
2019-05-29T01:13:19.144Z,0.00
2019-05-29T01:15:13.555Z,0.00
2019-05-29T01:16:13.977Z,0.00
2019-05-29T01:18:08.535Z,0.00
2019-05-29T01:19:08.963Z,0.00
2019-05-29T01:21:04.494Z,0.00
2019-05-29T01:22:04.933Z,0.00
2019-05-29T01:23:59.491Z,0.00
2019-05-29T01:24:59.912Z,0.00
2019-05-29T01:26:54.503Z,0.00
2019-05-29T01:27:54.899Z,0.00
2019-05-29T01:29:49.459Z,0.00
2019-05-29T01:30:51.534Z,0.00
2019-05-29T01:32:45.420Z,0.00
2019-05-29T01:33:45.850Z,0.00
2019-05-29T01:35:40.396Z,0.00
2019-05-29T01:36:40.820Z,0.00
2019-05-29T01:38:35.393Z,0.00
2019-05-29T01:39:35.814Z,0.00
2019-05-29T01:41:31.365Z,0.00
2019-05-29T01:42:31.782Z,0.00
2019-05-29T01:44:27.841Z,0.00
2019-05-29T01:45:27.775Z,0.00
2019-05-29T01:47:22.299Z,0.00
2019-05-29T01:48:23.639Z,0.00
2019-05-29T01:50:17.677Z,0.00
2019-05-29T01:51:17.712Z,0.00
2019-05-29T01:53:12.266Z,0.00
2019-05-29T01:54:12.684Z,0.00
2019-05-29T01:56:07.237Z,0.00
2019-05-29T01:57:07.660Z,0.00
2019-05-29T01:59:02.223Z,0.00
2019-05-29T02:00:02.657Z,0.00
2019-05-29T02:01:03.073Z,0.00
2019-05-29T02:02:03.508Z,0.00
2019-05-29T02:03:03.931Z,0.00
2019-05-29T02:04:04.357Z,0.00
2019-05-29T02:05:04.787Z,0.00
2019-05-29T02:06:05.222Z,0.00
2019-05-29T02:07:05.642Z,0.00
2019-05-29T02:08:06.077Z,0.00
2019-05-29T02:09:06.501Z,0.00
2019-05-29T02:10:06.927Z,0.00
2019-05-29T02:11:07.358Z,4.00
2019-05-29T02:12:07.785Z,4.00
2019-05-29T02:13:08.213Z,4.00
2019-05-29T02:14:08.647Z,4.00
2019-05-29T02:15:22.988Z,0.00
2019-05-29T02:16:09.502Z,4.00
2019-05-29T02:17:09.924Z,4.00
2019-05-29T02:18:10.357Z,4.00
2019-05-29T02:19:10.790Z,4.00
2019-05-29T02:20:11.212Z,4.00
2019-05-29T02:21:11.638Z,4.00
2019-05-29T02:22:12.084Z,4.00
2019-05-29T02:23:12.535Z,8.00
2019-05-29T02:24:12.933Z,4.00
2019-05-29T02:25:15.920Z,8.00
2019-05-29T02:26:13.781Z,8.00
2019-05-29T02:27:14.210Z,8.00
2019-05-29T02:28:14.639Z,8.00
2019-05-29T02:29:15.068Z,12.00
2019-05-29T02:30:17.830Z,12.00
2019-05-29T02:31:17.638Z,12.00
2019-05-29T02:32:17.676Z,16.00
2019-05-29T02:33:17.577Z,16.00
2019-05-29T02:34:17.552Z,24.00
2019-05-29T02:35:17.961Z,20.00
2019-05-29T02:36:18.060Z,24.00
2019-05-29T02:37:19.947Z,32.00
2019-05-29T02:38:20.311Z,32.00
2019-05-29T02:39:21.049Z,36.00
2019-05-29T02:40:21.288Z,44.00
2019-05-29T02:41:21.668Z,44.00
2019-05-29T02:42:20.978Z,48.00
2019-05-29T02:43:21.497Z,48.00
2019-05-29T02:44:23.332Z,52.00
2019-05-29T02:45:23.833Z,56.00
2019-05-29T02:46:23.983Z,60.00
2019-05-29T02:47:23.560Z,68.00
2019-05-29T02:48:24.950Z,68.00
2019-05-29T02:49:23.950Z,76.00
2019-05-29T02:50:24.563Z,80.00
2019-05-29T02:51:26.365Z,84.00
2019-05-29T02:52:26.338Z,88.00
2019-05-29T02:53:26.192Z,96.00
2019-05-29T02:54:27.200Z,104.00
2019-05-29T02:55:26.895Z,116.00
2019-05-29T02:56:27.049Z,128.00
2019-05-29T02:57:27.140Z,140.00
2019-05-29T02:58:28.215Z,152.00
2019-05-29T02:59:29.641Z,172.00
2019-05-29T03:00:29.295Z,188.00
2019-05-29T03:01:29.746Z,204.00
2019-05-29T03:02:30.138Z,220.00
2019-05-29T03:03:33.167Z,228.00
2019-05-29T03:04:30.345Z,244.00
2019-05-29T03:05:31.986Z,252.00
2019-05-29T03:06:32.337Z,260.00
2019-05-29T03:07:32.781Z,268.00
2019-05-29T03:08:33.574Z,280.00
2019-05-29T03:09:32.663Z,296.00
2019-05-29T03:10:33.167Z,312.00
2019-05-29T03:11:33.492Z,324.00
2019-05-29T03:12:33.807Z,344.00
2019-05-29T03:13:33.910Z,360.00
2019-05-29T03:14:34.898Z,376.00
2019-05-29T03:15:34.765Z,400.00
2019-05-29T03:16:35.189Z,420.00
2019-05-29T03:17:35.617Z,440.00
2019-05-29T03:18:36.049Z,460.00
2019-05-29T03:19:36.473Z,480.00
2019-05-29T03:20:36.899Z,488.00
2019-05-29T03:21:37.326Z,492.00
2019-05-29T03:22:37.758Z,500.00
2019-05-29T03:23:38.189Z,504.00
2019-05-29T03:24:38.698Z,504.00
2019-05-29T03:25:46.217Z,512.00
2019-05-29T03:27:33.948Z,520.00
2019-05-29T03:28:34.972Z,520.00
2019-05-29T03:30:31.810Z,528.00
2019-05-29T03:31:36.843Z,544.00
2019-05-29T03:33:27.154Z,572.00
2019-05-29T03:34:27.683Z,580.00
2019-05-29T03:36:19.519Z,584.00
2019-05-29T03:37:19.938Z,584.00
2019-05-29T03:39:14.509Z,608.00
2019-05-29T03:40:14.940Z,624.00
2019-05-29T03:42:09.523Z,652.00
2019-05-29T03:43:09.932Z,668.00
2019-05-29T03:45:05.475Z,716.00
2019-05-29T03:46:05.933Z,752.00
2019-05-29T03:48:00.450Z,808.00
2019-05-29T03:49:00.877Z,836.00
2019-05-29T03:50:55.439Z,884.00
2019-05-29T03:51:55.851Z,904.00
2019-05-29T03:53:50.411Z,944.00
2019-05-29T03:54:50.845Z,960.00
2019-05-29T03:56:45.439Z,984.00
2019-05-29T03:57:45.824Z,1000.00
2019-05-29T03:59:40.387Z,1024.00
2019-05-29T04:00:46.193Z,1048.00
2019-05-29T04:02:36.159Z,1152.00
2019-05-29T04:03:37.701Z,1176.00
2019-05-29T04:05:33.246Z,1328.00
2019-05-29T04:06:33.244Z,1452.00
2019-05-29T04:08:27.412Z,1764.00
2019-05-29T04:09:27.176Z,1888.00
2019-05-29T04:11:21.318Z,1992.00
2019-05-29T04:12:21.741Z,2020.00
2019-05-29T04:14:16.296Z,2148.00
2019-05-29T04:15:16.723Z,2260.00
2019-05-29T04:17:11.318Z,2464.00
2019-05-29T04:18:11.684Z,2560.00
2019-05-29T04:20:06.248Z,2652.00
2019-05-29T04:21:06.664Z,2656.00
2019-05-29T04:23:01.223Z,2620.00
2019-05-29T04:24:01.649Z,2596.00
2019-05-29T04:25:56.223Z,2588.00
2019-05-29T04:26:56.641Z,2624.00
2019-05-29T04:28:52.161Z,2708.00
2019-05-29T04:29:52.605Z,2744.00
2019-05-29T04:31:47.155Z,2760.00
2019-05-29T04:32:47.577Z,2724.00
2019-05-29T04:34:42.125Z,2624.00
2019-05-29T04:35:42.555Z,2588.00
2019-05-29T04:37:39.437Z,2652.00
2019-05-29T04:38:38.444Z,2748.00
2019-05-29T04:40:32.677Z,2992.00
2019-05-29T04:41:32.831Z,3128.00
2019-05-29T04:43:28.615Z,3400.00
2019-05-29T04:44:28.802Z,3544.00
2019-05-29T04:46:22.060Z,3824.00
2019-05-29T04:47:22.491Z,3880.00
2019-05-29T04:49:20.132Z,3756.00
2019-05-29T04:50:17.474Z,3660.00
2019-05-29T04:52:13.006Z,3580.00
2019-05-29T04:53:13.434Z,3576.00
2019-05-29T04:55:07.984Z,3676.00
2019-05-29T04:56:08.411Z,3796.00
2019-05-29T04:58:03.028Z,4000.00
2019-05-29T04:59:03.397Z,4060.00
2019-05-29T05:00:59.693Z,4104.00
2019-05-29T05:01:59.357Z,4152.00
2019-05-29T05:03:53.911Z,4352.00
2019-05-29T05:04:54.342Z,4488.00
2019-05-29T05:06:49.899Z,4808.00
2019-05-29T05:07:50.315Z,4944.00
2019-05-29T05:09:44.871Z,5216.00
2019-05-29T05:10:45.304Z,5332.00
2019-05-29T05:12:40.183Z,5512.00
2019-05-29T05:13:40.300Z,5584.00
2019-05-29T05:15:36.016Z,5956.00
2019-05-29T05:16:36.261Z,6072.00
2019-05-29T05:18:31.770Z,6332.00
2019-05-29T05:19:31.814Z,6608.00
2019-05-29T05:21:25.813Z,7300.00
2019-05-29T05:22:26.235Z,7664.00
2019-05-29T05:24:20.803Z,8060.00
2019-05-29T05:25:21.224Z,8316.00
2019-05-29T05:27:16.775Z,8556.00
2019-05-29T05:28:17.205Z,8688.00
2019-05-29T05:30:11.751Z,8704.00
2019-05-29T05:31:12.180Z,8740.00
2019-05-29T05:33:06.762Z,8232.00
2019-05-29T05:34:07.186Z,8148.00
2019-05-29T05:36:01.752Z,8148.00
2019-05-29T05:37:02.179Z,7884.00
2019-05-29T05:38:57.726Z,7492.00
2019-05-29T05:39:58.157Z,7944.00
2019-05-29T05:41:53.708Z,7748.00
2019-05-29T05:42:54.124Z,7676.00
2019-05-29T05:44:48.688Z,8364.00
2019-05-29T05:45:49.119Z,9060.00
2019-05-29T05:47:56.434Z,9652.00
2019-05-29T05:48:45.089Z,9916.00
2019-05-29T05:50:41.496Z,10668.00
2019-05-29T05:51:44.186Z,10736.00
2019-05-29T05:53:35.740Z,11660.00
2019-05-29T05:54:36.093Z,12496.00
2019-05-29T05:56:31.429Z,12868.00
2019-05-29T05:57:31.474Z,13192.00
2019-05-29T05:59:25.771Z,12176.00
2019-05-29T06:00:26.189Z,12504.00
2019-05-29T06:02:21.738Z,12724.00
2019-05-29T06:03:22.172Z,12908.00
2019-05-29T06:05:16.767Z,12328.00
2019-05-29T06:06:17.157Z,12256.00
2019-05-29T06:08:15.777Z,12004.00
2019-05-29T06:09:16.206Z,11812.00
2019-05-29T06:10:16.635Z,11612.00
2019-05-29T06:11:17.085Z,11668.00
2019-05-29T06:12:17.503Z,12076.00
2019-05-29T06:13:17.968Z,12396.00
2019-05-29T06:14:18.375Z,12664.00
2019-05-29T06:15:18.811Z,12808.00
2019-05-29T06:16:19.246Z,12760.00
2019-05-29T06:17:22.074Z,12692.00
2019-05-29T06:18:21.789Z,12568.00
2019-05-29T06:19:20.548Z,12460.00
2019-05-29T06:20:22.536Z,11828.00
2019-05-29T06:21:21.415Z,11728.00
2019-05-29T06:22:21.851Z,12660.00
2019-05-29T06:23:22.283Z,10992.00
2019-05-29T06:24:22.721Z,10980.00
2019-05-29T06:25:23.156Z,10300.00
2019-05-29T06:26:23.594Z,10524.00
2019-05-29T06:27:24.024Z,10748.00
2019-05-29T06:28:24.463Z,9848.00
2019-05-29T06:29:24.949Z,9896.00
2019-05-29T06:30:25.334Z,11428.00
2019-05-29T06:31:27.343Z,12520.00
2019-05-29T06:32:26.209Z,13528.00
2019-05-29T06:33:26.645Z,14512.00
2019-05-29T06:34:27.074Z,14880.00
2019-05-29T06:35:27.554Z,13720.00
2019-05-29T06:36:27.952Z,13440.00
2019-05-29T06:37:28.395Z,11352.00
2019-05-29T06:38:28.830Z,10420.00
2019-05-29T06:39:29.320Z,9664.00
2019-05-29T06:40:29.702Z,9604.00
2019-05-29T06:41:30.152Z,12132.00
2019-05-29T06:42:30.632Z,10792.00
2019-05-29T06:43:31.028Z,10724.00
2019-05-29T06:44:31.466Z,10324.00
2019-05-29T06:45:31.927Z,10144.00
2019-05-29T06:46:32.343Z,10404.00
2019-05-29T06:47:34.139Z,10384.00
2019-05-29T06:48:52.641Z,11140.00
2019-05-29T06:49:33.926Z,9904.00
2019-05-29T06:50:35.303Z,10912.00
2019-05-29T06:51:35.163Z,12012.00
2019-05-29T06:52:35.375Z,11480.00
2019-05-29T06:53:35.756Z,13460.00
2019-05-29T06:54:35.878Z,14168.00
2019-05-29T06:55:37.796Z,13692.00
2019-05-29T06:56:37.755Z,14616.00
2019-05-29T06:57:38.138Z,15136.00
2019-05-29T06:58:38.087Z,15456.00
2019-05-29T06:59:38.244Z,15520.00
2019-05-29T07:00:39.377Z,16256.00
2019-05-29T07:01:39.396Z,18272.00
2019-05-29T07:02:40.691Z,20448.00
2019-05-29T07:03:39.850Z,19424.00
2019-05-29T07:04:40.489Z,18944.00
2019-05-29T07:05:44.719Z,18944.00
2019-05-29T07:06:41.182Z,18720.00
2019-05-29T07:07:42.434Z,18176.00
2019-05-29T07:08:45.065Z,17664.00
2019-05-29T07:09:43.061Z,19200.00
2019-05-29T07:10:44.482Z,25152.00
2019-05-29T07:11:43.577Z,41120.00
2019-05-29T07:12:44.478Z,39648.00
2019-05-29T07:13:47.496Z,15580.00
2019-05-29T07:14:44.745Z,12560.00
2019-05-29T07:15:45.840Z,10176.00
2019-05-29T07:16:55.637Z,11348.00
2019-05-29T07:17:46.699Z,50752.00
2019-05-29T07:19:23.382Z,11180.00
2019-05-29T07:19:57.802Z,11640.00
2019-05-29T07:20:47.419Z,12684.00
2019-05-29T07:21:47.870Z,50272.00
2019-05-29T07:22:48.316Z,49024.00
2019-05-29T07:23:49.078Z,45632.00
2019-05-29T07:24:49.208Z,46624.00
2019-05-29T07:25:49.647Z,44640.00
2019-05-29T07:26:50.154Z,47200.00
2019-05-29T07:27:50.543Z,52512.00
2019-05-29T07:29:07.672Z,30976.00
2019-05-29T07:29:51.451Z,48000.00
2019-05-29T07:31:00.940Z,11012.00
2019-05-29T07:31:52.334Z,29856.00
2019-05-29T07:32:58.740Z,13376.00
2019-05-29T07:33:53.225Z,52544.00
2019-05-29T07:35:03.128Z,55040.00
2019-05-29T07:35:54.113Z,50368.00
2019-05-29T07:36:54.566Z,50560.00
2019-05-29T07:37:55.007Z,50944.00
2019-05-29T07:39:02.951Z,57056.00
2019-05-29T07:39:55.903Z,59936.00
2019-05-29T07:40:56.380Z,42336.00
2019-05-29T07:41:56.805Z,66144.00
2019-05-29T07:42:57.355Z,40704.00
2019-05-29T07:43:57.696Z,63360.00
2019-05-29T07:44:58.144Z,57664.00
2019-05-29T07:45:58.598Z,56032.00
2019-05-29T07:46:59.044Z,65184.00
2019-05-29T07:47:59.573Z,64896.00
2019-05-29T07:48:59.948Z,14544.00
2019-05-29T07:50:00.394Z,12540.00
2019-05-29T07:51:06.940Z,12408.00
2019-05-29T07:52:01.283Z,70464.00
2019-05-29T07:53:01.769Z,72768.00
2019-05-29T07:54:02.183Z,75936.00
2019-05-29T07:55:02.636Z,74144.00
2019-05-29T07:56:03.089Z,70528.00
2019-05-29T07:57:03.535Z,68096.00
2019-05-29T07:58:03.978Z,63840.00
2019-05-29T07:59:04.443Z,65856.00
2019-05-29T08:00:04.883Z,55328.00
2019-05-29T08:01:13.207Z,27200.00
2019-05-29T08:02:05.786Z,36512.00
2019-05-29T08:03:06.235Z,65536.00
2019-05-29T08:04:06.693Z,15064.00
2019-05-29T08:05:07.144Z,14140.00
2019-05-29T08:06:07.596Z,16384.00
2019-05-29T08:07:08.048Z,70592.00
2019-05-29T08:08:08.507Z,36960.00
2019-05-29T08:09:08.953Z,33472.00
2019-05-29T08:10:09.401Z,37600.00
2019-05-29T08:11:09.849Z,14136.00
2019-05-29T08:12:10.307Z,15256.00
2019-05-29T08:13:10.755Z,13516.00
2019-05-29T08:14:11.203Z,10404.00
2019-05-29T08:15:11.658Z,9536.00
2019-05-29T08:16:12.105Z,9732.00
2019-05-29T08:17:12.554Z,11348.00
2019-05-29T08:18:13.004Z,12184.00
2019-05-29T08:19:13.447Z,23552.00
2019-05-29T08:20:13.900Z,22144.00
2019-05-29T08:21:14.341Z,50912.00
2019-05-29T08:22:14.790Z,60000.00
2019-05-29T08:23:15.236Z,50624.00
2019-05-29T08:24:15.692Z,70944.00
2019-05-29T08:25:16.136Z,17440.00
2019-05-29T08:26:16.581Z,19776.00
2019-05-29T08:27:17.022Z,80832.00
2019-05-29T08:28:17.461Z,81792.00
2019-05-29T08:29:17.914Z,82688.00
2019-05-29T08:30:18.375Z,47424.00
2019-05-29T08:31:18.810Z,80928.00
2019-05-29T08:32:19.270Z,78592.00
2019-05-29T08:33:19.712Z,77248.00
2019-05-29T08:34:20.160Z,80896.00
2019-05-29T08:35:20.616Z,82912.00
2019-05-29T08:36:21.107Z,85408.00
2019-05-29T08:37:21.539Z,87936.00
2019-05-29T08:38:21.971Z,86528.00
2019-05-29T08:39:35.143Z,66944.00
2019-05-29T08:40:22.883Z,38240.00
2019-05-29T08:41:23.337Z,43744.00
2019-05-29T08:42:24.043Z,69216.00
2019-05-29T08:43:24.244Z,63648.00
2019-05-29T08:44:24.765Z,91488.00
2019-05-29T08:45:25.171Z,90752.00
2019-05-29T08:46:25.611Z,89376.00
2019-05-29T08:47:26.075Z,94624.00
2019-05-29T08:48:26.574Z,98176.00
2019-05-29T08:49:27.000Z,102208.00
2019-05-29T08:50:27.454Z,96352.00
2019-05-29T08:51:27.936Z,24032.00
2019-05-29T08:52:28.371Z,19904.00
2019-05-29T08:53:28.829Z,15216.00
2019-05-29T08:54:29.296Z,14028.00
2019-05-29T08:55:29.750Z,14616.00
2019-05-29T08:56:30.234Z,14560.00
2019-05-29T08:57:30.679Z,15704.00
2019-05-29T08:58:31.133Z,12940.00
2019-05-29T08:59:31.583Z,12680.00
2019-05-29T09:00:32.046Z,13508.00
2019-05-29T09:01:32.504Z,102624.00
2019-05-29T09:02:32.960Z,97792.00
2019-05-29T09:03:33.407Z,92576.00
2019-05-29T09:04:33.861Z,84672.00
2019-05-29T09:05:34.318Z,78976.00
2019-05-29T09:06:34.771Z,70752.00
2019-05-29T09:07:35.224Z,69248.00
2019-05-29T09:08:35.682Z,69792.00
2019-05-29T09:09:36.149Z,74848.00
2019-05-29T09:10:36.607Z,76864.00
2019-05-29T09:11:37.062Z,81536.00
2019-05-29T09:12:37.525Z,20640.00
2019-05-29T09:13:37.970Z,98464.00
2019-05-29T09:14:38.431Z,47072.00
2019-05-29T09:15:38.886Z,35840.00
2019-05-29T09:16:39.416Z,22208.00
2019-05-29T09:17:39.799Z,19904.00
2019-05-29T09:18:40.254Z,15108.00
2019-05-29T09:19:40.713Z,14756.00
2019-05-29T09:21:00.698Z,13764.00
2019-05-29T09:21:41.621Z,13444.00
2019-05-29T09:22:42.079Z,92704.00
2019-05-29T09:23:42.527Z,92800.00
2019-05-29T09:24:42.987Z,92192.00
2019-05-29T09:25:43.442Z,89600.00
2019-05-29T09:26:46.401Z,86176.00
2019-05-29T09:27:44.345Z,87776.00
2019-05-29T09:28:44.812Z,89920.00
2019-05-29T09:29:45.266Z,63744.00
2019-05-29T09:30:45.723Z,30688.00
2019-05-29T09:31:46.179Z,34112.00
2019-05-29T09:32:51.638Z,69728.00
2019-05-29T09:33:47.099Z,91392.00
2019-05-29T09:34:47.812Z,78880.00
2019-05-29T09:35:48.029Z,24256.00
2019-05-29T09:38:23.033Z,77280.00
2019-05-29T09:39:22.793Z,95424.00
2019-05-29T09:41:17.424Z,95552.00
2019-05-29T09:42:18.521Z,100096.00
2019-05-29T09:44:28.235Z,98528.00
2019-05-29T09:45:12.237Z,102080.00
2019-05-29T09:47:07.848Z,104288.00
2019-05-29T09:48:08.307Z,19456.00
2019-05-29T09:50:03.931Z,108800.00
2019-05-29T09:51:20.262Z,113888.00
2019-05-29T09:53:00.480Z,25088.00
2019-05-29T09:54:01.068Z,72832.00
2019-05-29T09:55:55.629Z,92352.00
2019-05-29T09:56:56.155Z,19328.00
2019-05-29T09:58:49.160Z,15108.00
2019-05-29T09:59:49.634Z,13812.00
2019-05-29T10:01:44.235Z,15368.00
2019-05-29T10:02:44.688Z,18848.00
2019-05-29T10:04:39.299Z,17728.00
2019-05-29T10:05:39.746Z,18368.00
2019-05-29T10:07:34.370Z,31360.00
2019-05-29T10:08:34.810Z,21440.00
2019-05-29T10:10:29.416Z,14644.00
2019-05-29T10:11:29.878Z,59136.00
2019-05-29T10:13:24.470Z,97056.00
2019-05-29T10:14:24.928Z,100736.00
2019-05-29T10:16:20.541Z,87072.00
2019-05-29T10:17:21.009Z,81952.00
2019-05-29T10:19:15.606Z,35488.00
2019-05-29T10:20:16.075Z,22720.00
2019-05-29T10:21:16.553Z,19232.00
2019-05-29T10:22:17.034Z,19744.00
2019-05-29T10:23:20.039Z,16008.00
2019-05-29T10:24:17.907Z,15084.00
2019-05-29T10:25:18.369Z,20736.00
2019-05-29T10:26:18.835Z,20576.00
2019-05-29T10:27:19.406Z,16928.00
2019-05-29T10:28:19.752Z,17920.00
2019-05-29T10:29:20.206Z,18944.00
2019-05-29T10:30:20.658Z,44256.00
2019-05-29T10:31:21.124Z,30624.00
2019-05-29T10:32:21.574Z,22656.00
2019-05-29T10:33:22.029Z,21120.00
2019-05-29T10:34:22.548Z,21632.00
2019-05-29T10:35:22.944Z,24512.00
2019-05-29T10:36:23.606Z,27168.00
2019-05-29T10:37:23.869Z,25152.00
2019-05-29T10:38:24.317Z,28160.00
2019-05-29T10:39:24.776Z,21440.00
2019-05-29T10:40:25.238Z,48384.00
2019-05-29T10:41:25.701Z,39680.00
2019-05-29T10:42:26.165Z,73824.00
2019-05-29T10:44:20.785Z,83808.00
2019-05-29T10:45:21.240Z,103008.00
2019-05-29T10:47:15.862Z,116896.00
2019-05-29T10:48:16.327Z,124448.00
2019-05-29T10:50:11.158Z,123776.00
2019-05-29T10:51:11.416Z,121760.00
2019-05-29T10:53:06.068Z,120064.00
2019-05-29T10:54:06.518Z,123328.00
2019-05-29T10:56:01.145Z,111136.00
2019-05-29T10:57:01.611Z,13120.00
2019-05-29T10:58:59.876Z,12560.00
2019-05-29T10:59:56.735Z,20960.00
2019-05-29T11:01:51.848Z,58400.00
2019-05-29T11:02:53.538Z,11932.00
2019-05-29T11:04:50.408Z,10620.00
2019-05-29T11:05:47.481Z,13248.00
2019-05-29T11:07:41.477Z,80992.00
2019-05-29T11:08:41.942Z,88480.00
2019-05-29T11:10:36.543Z,81440.00
2019-05-29T11:11:36.999Z,40864.00
2019-05-29T11:13:31.598Z,65696.00
2019-05-29T11:14:32.058Z,102368.00
2019-05-29T11:16:26.709Z,102656.00
2019-05-29T11:17:27.147Z,100352.00
2019-05-29T11:19:25.838Z,112352.00
2019-05-29T11:20:22.224Z,113120.00
2019-05-29T11:22:26.410Z,117024.00
2019-05-29T11:23:17.315Z,116544.00
2019-05-29T11:25:22.538Z,107328.00
2019-05-29T11:26:12.770Z,112704.00
2019-05-29T11:28:07.206Z,103424.00
2019-05-29T11:29:07.538Z,98880.00
2019-05-29T11:31:06.198Z,96000.00
2019-05-29T11:32:02.643Z,80960.00
2019-05-29T11:33:57.341Z,9296.00
2019-05-29T11:34:57.736Z,8500.00
2019-05-29T11:36:52.494Z,9884.00
2019-05-29T11:37:52.951Z,9780.00
2019-05-29T11:39:47.439Z,10032.00
2019-05-29T11:40:48.025Z,8924.00
2019-05-29T11:42:42.586Z,10392.00
2019-05-29T11:43:42.979Z,10300.00
2019-05-29T11:45:37.805Z,9836.00
2019-05-29T11:46:38.085Z,10048.00
2019-05-29T11:48:32.689Z,10624.00
2019-05-29T11:49:33.097Z,10392.00
2019-05-29T11:51:28.049Z,9224.00
2019-05-29T11:52:41.684Z,8612.00
2019-05-29T11:54:23.086Z,7988.00
2019-05-29T11:55:23.538Z,8528.00
2019-05-29T11:57:18.385Z,7364.00
2019-05-29T11:58:30.549Z,7836.00
2019-05-29T12:00:20.239Z,7592.00
2019-05-29T12:01:14.668Z,7156.00
2019-05-29T12:03:11.205Z,7184.00
2019-05-29T12:04:24.323Z,6696.00
2019-05-29T12:06:04.421Z,7880.00
2019-05-29T12:07:04.736Z,9236.00
2019-05-29T12:08:05.175Z,9952.00
2019-05-29T12:09:05.626Z,9912.00
2019-05-29T12:10:06.419Z,10028.00
2019-05-29T12:11:07.301Z,10180.00
2019-05-29T12:12:06.951Z,10588.00
2019-05-29T12:13:07.387Z,12448.00
2019-05-29T12:14:07.825Z,12696.00
2019-05-29T12:15:14.362Z,12136.00
2019-05-29T12:16:08.709Z,11984.00
2019-05-29T12:17:09.152Z,11308.00
2019-05-29T12:18:23.084Z,11108.00
2019-05-29T12:19:10.040Z,11380.00
2019-05-29T12:20:26.333Z,11784.00
2019-05-29T12:21:10.915Z,11912.00
2019-05-29T12:22:11.361Z,12060.00
2019-05-29T12:23:25.065Z,11904.00
2019-05-29T12:24:12.284Z,10916.00
2019-05-29T12:25:12.686Z,9964.00
2019-05-29T12:26:22.382Z,9812.00
2019-05-29T12:27:13.571Z,9884.00
2019-05-29T12:28:14.009Z,10132.00
2019-05-29T12:29:14.457Z,9556.00
2019-05-29T12:30:14.896Z,8424.00
2019-05-29T12:31:15.334Z,8456.00
2019-05-29T12:32:15.825Z,7864.00
2019-05-29T12:33:16.213Z,8024.00
2019-05-29T12:34:19.372Z,7880.00
2019-05-29T12:35:17.096Z,7792.00
2019-05-29T12:36:17.542Z,7976.00
2019-05-29T12:37:18.011Z,7804.00
2019-05-29T12:38:18.425Z,7364.00
2019-05-29T12:39:18.857Z,6864.00
2019-05-29T12:40:19.311Z,6408.00
2019-05-29T12:41:19.752Z,6104.00
2019-05-29T12:42:20.254Z,6328.00
2019-05-29T12:43:27.126Z,5836.00
2019-05-29T12:44:21.074Z,6392.00
2019-05-29T12:45:21.506Z,7116.00
2019-05-29T12:46:21.957Z,8248.00
2019-05-29T12:47:22.389Z,7440.00
2019-05-29T12:48:22.831Z,6872.00
2019-05-29T12:49:23.276Z,6944.00
2019-05-29T12:50:23.709Z,6704.00
2019-05-29T12:51:24.149Z,6592.00
2019-05-29T12:52:24.609Z,6232.00
2019-05-29T12:53:30.315Z,7804.00
2019-05-29T12:54:25.471Z,7392.00
2019-05-29T12:55:25.915Z,7008.00
2019-05-29T12:56:26.352Z,5684.00
2019-05-29T12:57:26.795Z,5352.00
2019-05-29T12:58:27.231Z,4992.00
2019-05-29T12:59:27.669Z,5932.00
2019-05-29T13:00:28.120Z,6004.00
2019-05-29T13:01:28.554Z,6136.00
2019-05-29T13:02:28.996Z,6440.00
2019-05-29T13:03:29.444Z,7240.00
2019-05-29T13:04:29.885Z,7596.00
2019-05-29T13:05:30.311Z,7184.00
2019-05-29T13:06:30.750Z,6636.00
2019-05-29T13:07:31.194Z,6172.00
2019-05-29T13:08:31.627Z,5892.00
2019-05-29T13:09:32.105Z,6104.00
2019-05-29T13:10:32.514Z,6432.00
2019-05-29T13:11:32.945Z,6732.00
2019-05-29T13:12:33.430Z,7008.00
2019-05-29T13:13:33.824Z,7064.00
2019-05-29T13:14:34.265Z,7684.00
2019-05-29T13:15:34.702Z,8060.00
2019-05-29T13:16:35.141Z,7884.00
2019-05-29T13:17:35.595Z,7656.00
2019-05-29T13:18:36.020Z,7668.00
2019-05-29T13:19:36.479Z,7828.00
2019-05-29T13:20:36.905Z,7924.00
2019-05-29T13:21:37.338Z,7780.00
2019-05-29T13:22:37.792Z,7940.00
2019-05-29T13:23:45.192Z,7776.00
2019-05-29T13:24:38.656Z,7992.00
2019-05-29T13:25:39.104Z,8028.00
2019-05-29T13:26:39.534Z,8180.00
2019-05-29T13:27:39.975Z,7900.00
2019-05-29T13:28:40.417Z,6264.00
2019-05-29T13:29:40.856Z,5584.00
2019-05-29T13:30:41.354Z,5988.00
2019-05-29T13:31:41.732Z,6276.00
2019-05-29T13:32:42.733Z,5988.00
2019-05-29T13:33:42.607Z,6240.00
2019-05-29T13:34:43.055Z,6244.00
2019-05-29T13:35:43.494Z,6600.00
2019-05-29T13:36:43.960Z,6452.00
2019-05-29T13:37:44.369Z,6020.00
2019-05-29T13:38:44.813Z,5632.00
2019-05-29T13:39:45.259Z,5124.00
2019-05-29T13:40:45.688Z,4880.00
2019-05-29T13:41:46.137Z,4912.00
2019-05-29T13:42:46.565Z,4924.00
2019-05-29T13:43:47.007Z,5120.00
2019-05-29T13:44:47.487Z,5604.00
2019-05-29T13:45:47.899Z,5856.00
2019-05-29T13:46:48.363Z,6220.00
2019-05-29T13:47:48.777Z,6628.00
2019-05-29T13:48:49.202Z,7052.00
2019-05-29T13:49:49.642Z,7576.00
2019-05-29T13:50:50.085Z,8256.00
2019-05-29T13:51:50.555Z,8504.00
2019-05-29T13:52:50.995Z,8428.00
2019-05-29T13:54:02.525Z,7776.00
2019-05-29T13:54:51.847Z,7304.00
2019-05-29T13:55:52.278Z,6960.00
2019-05-29T13:56:52.760Z,6496.00
2019-05-29T13:57:53.161Z,5888.00
2019-05-29T13:58:53.633Z,5408.00
2019-05-29T13:59:54.043Z,5328.00
2019-05-29T14:00:54.498Z,4800.00
2019-05-29T14:01:54.927Z,4008.00
2019-05-29T14:02:55.369Z,4288.00
2019-05-29T14:03:55.801Z,4636.00
2019-05-29T14:04:56.238Z,3376.00
2019-05-29T14:05:56.680Z,4176.00
2019-05-29T14:06:58.490Z,4680.00
2019-05-29T14:07:58.524Z,4932.00
2019-05-29T14:08:58.981Z,5404.00
2019-05-29T14:09:58.892Z,5952.00
2019-05-29T14:10:59.202Z,5832.00
2019-05-29T14:11:59.317Z,5880.00
2019-05-29T14:13:00.965Z,6144.00
2019-05-29T14:14:01.275Z,6236.00
2019-05-29T14:15:02.090Z,6288.00